KMOT/MOT METAR and TAF weather

Enter ICAO airport designator
Station Type Date Time Source
KMOT METAR 2021/09/16 10:54 UTC NOAA

KMOT 161054Z AUTO 00000KT 10SM FEW075 OVC090 12/06 A2973 RMK AO2 RAE39 SLP063 P0001 T01170056 $


Station Type Date Time Source
KMOT Decoded METAR 2021/09/16 10:54 UTC NOAA

MINOT INTERNATIONAL AIRPORT , ND, United States (KMOT) 48-16N 101-17W 519M
Sep 16, 2021 - 06:54 AM EDT / 2021.09.16 1054 UTC
Wind: Calm:0
Visibility: 10 mile(s):0
Sky conditions: overcast
Precipitation last hour: 0.01 inches
Temperature: 53.1 F (11.7 C)
Dew Point: 42.1 F (5.6 C)
Relative Humidity: 66%
Pressure (altimeter): 29.73 in. Hg (1006 hPa)
ob: KMOT 161054Z AUTO 00000KT 10SM FEW075 OVC090 12/06 A2973 RMK AO2 RAE39 SLP063 P0001 T01170056
cycle: 11

Station Type Date Time Source
KMOT TAF 2021/09/16 12:40 UTC NOAA

TAF KMOT 161138Z 1612/1712 34007KT P6SM VCSH SCT060 OVC090
FM161800 29014G22KT P6SM BKN100
FM170200 28009KT P6SM SCT150

Example: see airport list